Koho Maru No.18 — JK5320 — position and weather

sailwx.info

Track history (hours):
 
Tides and Currents Weather Stations Pressure Air Temp Water Temp Dewpoint Dewpoint Depression Visibility Wind Speed Wind Dir Waves Ship Positions

Koho Maru No.18

Last reported at 2017-Nov-18 21:20 UTC. Time now 2017-Nov-18 21:59 UTC.
Position N 34°41' E 134°46'.

Length 70 m; draft 4.4 m.

Type: Tanker. MMSI: 431400496.

Date/timePositionNaut miles runAvg speedWind from/ knotsBaromVisibWave heightAir tempDewpointWater temp
2017-Nov-18 21:20N 34°41' E 134°46'513.2
2017-Nov-18 20:56N 34°38' E 134°52'613.1
2017-Nov-18 20:30N 34°38' E 134°59'611.4
2017-Nov-18 20:00N 34°36' E 135°05'611.0
2017-Nov-18 19:30N 34°30' E 135°04'612.4
2017-Nov-18 18:59N 34°24' E 135°02'811.8
2017-Nov-18 18:18N 34°16' E 134°59'310.3
2017-Nov-18 18:00N 34°13' E 134°59'511.0
2017-Nov-18 17:30N 34°08' E 134°59'  
2017-Nov-16 06:22N 35°04' E 139°34'512.8
2017-Nov-16 06:00N 35°06' E 139°39'612.6
2017-Nov-16 05:30N 35°11' E 139°45'611.5
2017-Nov-16 05:00N 35°17' E 139°45'612.1
2017-Nov-16 04:30N 35°22' E 139°42'612.0
2017-Nov-16 04:00N 35°27' E 139°47'612.8
2017-Nov-16 03:30N 35°30' E 139°54'6 1.1
2017-Nov-15 21:49N 35°30' E 140°01'1 1.5
2017-Nov-15 21:21N 35°30' E 140°01'0 0.0
2017-Nov-15 19:00N 35°30' E 140°00'0 0.0
2017-Nov-15 17:18N 35°30' E 140°01'0 0.0
2017-Nov-15 15:24N 35°30' E 140°00'0 0.3
2017-Nov-15 14:54N 35°30' E 140°00'4 9.4
2017-Nov-15 14:27N 35°29' E 139°55'612.3
2017-Nov-15 14:00N 35°27' E 139°49'612.7
2017-Nov-15 13:30N 35°22' E 139°45'611.5
2017-Nov-15 13:00N 35°16' E 139°46'611.8
2017-Nov-15 12:30N 35°10' E 139°46'612.2
2017-Nov-15 12:00N 35°05' E 139°42'612.9
2017-Nov-15 11:30N 35°00' E 139°36'713.0
2017-Nov-15 11:00N 34°56' E 139°30'8 0.3
2017-Nov-14 07:32N 35°04' E 139°34'012.4
2017-Nov-14 07:30N 35°04' E 139°35'612.4
2017-Nov-14 07:00N 35°07' E 139°41'612.4
2017-Nov-14 06:30N 35°12' E 139°46'611.7
2017-Nov-14 06:00N 35°18' E 139°44'612.0
2017-Nov-14 05:30N 35°24' E 139°43'612.4
2017-Nov-14 05:00N 35°28' E 139°48'712.7
2017-Nov-14 04:29N 35°31' E 139°55'1 0.1
2017-Nov-13 22:29N 35°31' E 139°56'32 0.8
2017-Nov-12 08:05N 35°04' E 139°35'112.6
2017-Nov-12 07:59N 35°04' E 139°36'612.5
2017-Nov-12 07:30N 35°08' E 139°42'612.9
2017-Nov-12 07:00N 35°13' E 139°46'612.3
2017-Nov-12 06:30N 35°19' E 139°43'611.7
2017-Nov-12 06:00N 35°25' E 139°43'713.0
2017-Nov-12 05:30N 35°29' E 139°50'6 0.8
2017-Nov-11 21:51N 35°30' E 139°57'1 4.3
2017-Nov-11 21:30N 35°28' E 139°56'0 0.0
2017-Nov-11 21:00N 35°28' E 139°56'0 0.0
2017-Nov-11 20:27N 35°28' E 139°56'0 0.0
2017-Nov-11 20:00N 35°28' E 139°56'0 0.0
2017-Nov-11 19:27N 35°28' E 139°56'0 0.0
2017-Nov-11 19:00N 35°28' E 139°56'0 0.0
2017-Nov-11 18:30N 35°28' E 139°56'0 0.0
2017-Nov-11 18:00N 35°28' E 139°56'0 0.0
2017-Nov-11 17:30N 35°28' E 139°56'0 0.0
2017-Nov-11 17:00N 35°28' E 139°56'0 0.0
2017-Nov-11 16:24N 35°28' E 139°56'0 0.0
2017-Nov-11 15:48N 35°28' E 139°56'0 0.0
2017-Nov-11 15:30N 35°28' E 139°56'0 0.0
2017-Nov-11 14:57N 35°28' E 139°56'0 0.0
2017-Nov-11 14:30N 35°28' E 139°56'0 0.0
2017-Nov-11 09:57N 35°28' E 139°56'0 0.1
2017-Nov-11 09:30N 35°28' E 139°56'0 0.1
2017-Nov-11 08:57N 35°28' E 139°56'0 0.1
2017-Nov-11 08:27N 35°28' E 139°56'0 0.0
2017-Nov-11 07:27N 35°28' E 139°56'0 0.0
2017-Nov-11 07:00N 35°28' E 139°56'0 0.1
2017-Nov-11 06:30N 35°28' E 139°56'0 0.0
2017-Nov-11 06:00N 35°28' E 139°56'0 0.1
2017-Nov-11 05:30N 35°28' E 139°56'0 0.0
2017-Nov-11 05:00N 35°28' E 139°56'0 0.0
2017-Nov-11 04:30N 35°28' E 139°56'0 0.0
2017-Nov-11 03:54N 35°28' E 139°56'0 0.0
2017-Nov-11 03:29N 35°28' E 139°56'0 0.0
2017-Nov-11 03:00N 35°28' E 139°56'0 0.0
2017-Nov-11 02:20N 35°28' E 139°56'0 0.0
2017-Nov-11 01:54N 35°28' E 139°56'0 0.0
2017-Nov-11 01:30N 35°28' E 139°56'0 0.1
2017-Nov-11 00:46N 35°29' E 139°56'0 0.0
2017-Nov-11 00:29N 35°29' E 139°56'0 0.0
2017-Nov-10 20:18N 35°29' E 139°56'0 0.0
2017-Nov-10 19:54N 35°29' E 139°56'0 0.0
2017-Nov-10 19:03N 35°29' E 139°56'0 0.0
2017-Nov-10 18:52N 35°29' E 139°56'0 0.0
2017-Nov-10 18:23N 35°29' E 139°56'0 0.0
2017-Nov-10 17:55N 35°29' E 139°56'0 0.0
2017-Nov-10 17:30N 35°29' E 139°56'0 0.0
2017-Nov-10 16:57N 35°29' E 139°56'0 0.0
2017-Nov-10 16:27N 35°29' E 139°56'0 0.0
2017-Nov-10 16:00N 35°29' E 139°56'0 0.0
2017-Nov-10 15:27N 35°29' E 139°56'0 0.0
2017-Nov-10 14:56N 35°29' E 139°56'0 0.0
2017-Nov-10 14:25N 35°29' E 139°56'0 0.0
2017-Nov-10 13:57N 35°29' E 139°56'0 0.0
2017-Nov-10 12:49N 35°29' E 139°56'0 0.0
2017-Nov-10 12:25N 35°29' E 139°56'0 0.6
2017-Nov-10 12:00N 35°29' E 139°56'5 9.3
2017-Nov-10 11:30N 35°27' E 139°50'612.1
2017-Nov-10 11:00N 35°23' E 139°45'611.0
2017-Nov-10 10:30N 35°17' E 139°46'611.5
2017-Nov-10 10:00N 35°11' E 139°47'612.3
2017-Nov-10 09:30N 35°06' E 139°44'612.6
2017-Nov-10 09:00N 35°01' E 139°39'713.5
2017-Nov-10 08:30N 34°57' E 139°32'  
Track history (hours):
 
Tides and Currents Weather Stations Pressure Air Temp Water Temp Dewpoint Dewpoint Depression Visibility Wind Speed Wind Dir Waves Ship Positions

Koho Maru No.18

Last reported at 2017-Nov-18 21:20 UTC. Time now 2017-Nov-18 21:59 UTC.
Position N 34°41' E 134°46'.

Length 70 m; draft 4.4 m.

Type: Tanker. MMSI: 431400496.

Date/timePositionNaut miles runAvg speedWind from/ knotsBaromVisibWave heightAir tempDewpointWater temp
2017-Nov-18 21:20N 34°41' E 134°46'513.2
2017-Nov-18 20:56N 34°38' E 134°52'613.1
2017-Nov-18 20:30N 34°38' E 134°59'611.4
2017-Nov-18 20:00N 34°36' E 135°05'611.0
2017-Nov-18 19:30N 34°30' E 135°04'612.4
2017-Nov-18 18:59N 34°24' E 135°02'811.8
2017-Nov-18 18:18N 34°16' E 134°59'310.3
2017-Nov-18 18:00N 34°13' E 134°59'511.0
2017-Nov-18 17:30N 34°08' E 134°59'  
2017-Nov-16 06:22N 35°04' E 139°34'512.8
2017-Nov-16 06:00N 35°06' E 139°39'612.6
2017-Nov-16 05:30N 35°11' E 139°45'611.5
2017-Nov-16 05:00N 35°17' E 139°45'612.1
2017-Nov-16 04:30N 35°22' E 139°42'612.0
2017-Nov-16 04:00N 35°27' E 139°47'612.8
2017-Nov-16 03:30N 35°30' E 139°54'6 1.1
2017-Nov-15 21:49N 35°30' E 140°01'1 1.5
2017-Nov-15 21:21N 35°30' E 140°01'0 0.0
2017-Nov-15 19:00N 35°30' E 140°00'0 0.0
2017-Nov-15 17:18N 35°30' E 140°01'0 0.0
2017-Nov-15 15:24N 35°30' E 140°00'0 0.3
2017-Nov-15 14:54N 35°30' E 140°00'4 9.4
2017-Nov-15 14:27N 35°29' E 139°55'612.3
2017-Nov-15 14:00N 35°27' E 139°49'612.7
2017-Nov-15 13:30N 35°22' E 139°45'611.5
2017-Nov-15 13:00N 35°16' E 139°46'611.8
2017-Nov-15 12:30N 35°10' E 139°46'612.2
2017-Nov-15 12:00N 35°05' E 139°42'612.9
2017-Nov-15 11:30N 35°00' E 139°36'713.0
2017-Nov-15 11:00N 34°56' E 139°30'8 0.3
2017-Nov-14 07:32N 35°04' E 139°34'012.4
2017-Nov-14 07:30N 35°04' E 139°35'612.4
2017-Nov-14 07:00N 35°07' E 139°41'612.4
2017-Nov-14 06:30N 35°12' E 139°46'611.7
2017-Nov-14 06:00N 35°18' E 139°44'612.0
2017-Nov-14 05:30N 35°24' E 139°43'612.4
2017-Nov-14 05:00N 35°28' E 139°48'712.7
2017-Nov-14 04:29N 35°31' E 139°55'1 0.1
2017-Nov-13 22:29N 35°31' E 139°56'32 0.8
2017-Nov-12 08:05N 35°04' E 139°35'112.6
2017-Nov-12 07:59N 35°04' E 139°36'612.5
2017-Nov-12 07:30N 35°08' E 139°42'612.9
2017-Nov-12 07:00N 35°13' E 139°46'612.3
2017-Nov-12 06:30N 35°19' E 139°43'611.7
2017-Nov-12 06:00N 35°25' E 139°43'713.0
2017-Nov-12 05:30N 35°29' E 139°50'6 0.8
2017-Nov-11 21:51N 35°30' E 139°57'1 4.3
2017-Nov-11 21:30N 35°28' E 139°56'0 0.0
2017-Nov-11 21:00N 35°28' E 139°56'0 0.0
2017-Nov-11 20:27N 35°28' E 139°56'0 0.0
2017-Nov-11 20:00N 35°28' E 139°56'0 0.0
2017-Nov-11 19:27N 35°28' E 139°56'0 0.0
2017-Nov-11 19:00N 35°28' E 139°56'0 0.0
2017-Nov-11 18:30N 35°28' E 139°56'0 0.0
2017-Nov-11 18:00N 35°28' E 139°56'0 0.0
2017-Nov-11 17:30N 35°28' E 139°56'0 0.0
2017-Nov-11 17:00N 35°28' E 139°56'0 0.0
2017-Nov-11 16:24N 35°28' E 139°56'0 0.0
2017-Nov-11 15:48N 35°28' E 139°56'0 0.0
2017-Nov-11 15:30N 35°28' E 139°56'0 0.0
2017-Nov-11 14:57N 35°28' E 139°56'0 0.0
2017-Nov-11 14:30N 35°28' E 139°56'0 0.0
2017-Nov-11 09:57N 35°28' E 139°56'0 0.1
2017-Nov-11 09:30N 35°28' E 139°56'0 0.1
2017-Nov-11 08:57N 35°28' E 139°56'0 0.1
2017-Nov-11 08:27N 35°28' E 139°56'0 0.0
2017-Nov-11 07:27N 35°28' E 139°56'0 0.0
2017-Nov-11 07:00N 35°28' E 139°56'0 0.1
2017-Nov-11 06:30N 35°28' E 139°56'0 0.0
2017-Nov-11 06:00N 35°28' E 139°56'0 0.1
2017-Nov-11 05:30N 35°28' E 139°56'0 0.0
2017-Nov-11 05:00N 35°28' E 139°56'0 0.0
2017-Nov-11 04:30N 35°28' E 139°56'0 0.0
2017-Nov-11 03:54N 35°28' E 139°56'0 0.0
2017-Nov-11 03:29N 35°28' E 139°56'0 0.0
2017-Nov-11 03:00N 35°28' E 139°56'0 0.0
2017-Nov-11 02:20N 35°28' E 139°56'0 0.0
2017-Nov-11 01:54N 35°28' E 139°56'0 0.0
2017-Nov-11 01:30N 35°28' E 139°56'0 0.1
2017-Nov-11 00:46N 35°29' E 139°56'0 0.0
2017-Nov-11 00:29N 35°29' E 139°56'0 0.0
2017-Nov-10 20:18N 35°29' E 139°56'0 0.0
2017-Nov-10 19:54N 35°29' E 139°56'0 0.0
2017-Nov-10 19:03N 35°29' E 139°56'0 0.0
2017-Nov-10 18:52N 35°29' E 139°56'0 0.0
2017-Nov-10 18:23N 35°29' E 139°56'0 0.0
2017-Nov-10 17:55N 35°29' E 139°56'0 0.0
2017-Nov-10 17:30N 35°29' E 139°56'0 0.0
2017-Nov-10 16:57N 35°29' E 139°56'0 0.0
2017-Nov-10 16:27N 35°29' E 139°56'0 0.0
2017-Nov-10 16:00N 35°29' E 139°56'0 0.0
2017-Nov-10 15:27N 35°29' E 139°56'0 0.0
2017-Nov-10 14:56N 35°29' E 139°56'0 0.0
2017-Nov-10 14:25N 35°29' E 139°56'0 0.0
2017-Nov-10 13:57N 35°29' E 139°56'0 0.0
2017-Nov-10 12:49N 35°29' E 139°56'0 0.0
2017-Nov-10 12:25N 35°29' E 139°56'0 0.6
2017-Nov-10 12:00N 35°29' E 139°56'5 9.3
2017-Nov-10 11:30N 35°27' E 139°50'612.1
2017-Nov-10 11:00N 35°23' E 139°45'611.0
2017-Nov-10 10:30N 35°17' E 139°46'611.5
2017-Nov-10 10:00N 35°11' E 139°47'612.3
2017-Nov-10 09:30N 35°06' E 139°44'612.6
2017-Nov-10 09:00N 35°01' E 139°39'713.5
2017-Nov-10 08:30N 34°57' E 139°32'  

Dump ship's entire track history